Time;durP1;ratioP1;P1;durP2;ratioP2;P2;SDS_P1;SDS_P2;PMS_P1;PMS_P2;Temp;Humidity;BMP_temperature;BMP_pressure;BME280_temperature;BME280_humidity;BME280_pressure;Samples;Min_cycle;Max_cycle;Signal;HPM_P1;HPM_P2
2021/03/31 00:00:24;;;;;;;8.57;4.15;;;;;;;10.41;57.78;101421.66;5092508;28;20073;-69
2021/03/31 00:03:12;;;;;;;7.35;4.18;;;;;;;10.35;57.76;101420.31;5078007;28;20047;-69
2021/03/31 00:05:56;;;;;;;7.90;3.85;;;;;;;10.30;57.78;101416.28;5092604;28;20504;-69
2021/03/31 00:08:40;;;;;;;9.10;4.15;;;;;;;10.28;57.94;101419.09;5093496;28;20113;-69
2021/03/31 00:11:24;;;;;;;7.20;3.80;;;;;;;10.18;58.81;101419.88;5093499;28;20086;-69
2021/03/31 00:14:08;;;;;;;13.77;4.03;;;;;;;10.06;59.96;101419.91;5092517;28;20051;-69
2021/03/31 00:16:52;;;;;;;10.48;4.18;;;;;;;9.94;61.49;101416.34;5078202;28;20181;-69
2021/03/31 00:19:36;;;;;;;10.88;3.92;;;;;;;9.86;63.70;101421.38;5092198;28;20131;-69
2021/03/31 00:22:20;;;;;;;10.05;4.47;;;;;;;9.81;64.36;101420.00;5093128;28;20109;-69
2021/03/31 00:25:05;;;;;;;13.65;3.90;;;;;;;9.79;64.38;101421.94;5092463;28;20106;-69
2021/03/31 00:27:49;;;;;;;14.10;4.25;;;;;;;9.77;64.00;101416.69;5092099;28;20043;-69
2021/03/31 00:30:33;;;;;;;6.85;4.13;;;;;;;9.75;61.92;101417.75;5093060;28;20043;-69
2021/03/31 00:33:17;;;;;;;;;;;;;;;9.73;62.97;101409.03;5095266;28;20565;-69
2021/03/31 00:36:01;;;;;;;12.52;4.53;;;;;;;9.67;61.37;101414.84;5096265;28;19919;-69
2021/03/31 00:38:45;;;;;;;7.63;4.30;;;;;;;9.66;60.76;101408.63;5097063;28;20096;-69
2021/03/31 00:41:29;;;;;;;6.65;4.25;;;;;;;9.66;61.94;101407.78;5081840;28;20093;-69
2021/03/31 00:44:14;;;;;;;7.88;3.97;;;;;;;9.63;64.39;101402.69;5081882;28;20512;-69
2021/03/31 00:46:58;;;;;;;7.32;4.20;;;;;;;9.54;64.65;101408.66;5097190;28;20066;-69
2021/03/31 00:49:42;;;;;;;6.35;4.10;;;;;;;9.47;63.21;101402.94;5097166;28;20050;-69
2021/03/31 00:52:26;;;;;;;10.88;3.78;;;;;;;9.44;63.59;101404.97;5096790;28;20043;-70
2021/03/31 00:55:11;;;;;;;8.77;4.32;;;;;;;9.41;62.94;101397.22;5095792;28;20047;-69
2021/03/31 00:57:56;;;;;;;10.63;4.72;;;;;;;9.36;63.27;101400.19;5096022;28;20572;-69
2021/03/31 01:00:40;;;;;;;10.60;4.47;;;;;;;9.33;64.48;101394.25;5096645;28;20043;-69
2021/03/31 01:03:24;;;;;;;7.53;4.60;;;;;;;9.27;63.84;101395.53;5081253;28;20059;-69
2021/03/31 01:06:08;;;;;;;16.45;4.50;;;;;;;9.27;62.55;101394.69;5096136;28;20104;-69
2021/03/31 01:08:52;;;;;;;10.25;4.90;;;;;;;9.24;63.91;101389.56;5096485;28;20451;-69
2021/03/31 01:12:02;;;;;;;6.13;4.28;;;;;;;9.16;64.53;101386.63;5095443;28;20047;-69
2021/03/31 01:14:56;;;;;;;10.13;4.55;;;;;;;9.13;64.78;101381.50;5096726;28;20086;-69
2021/03/31 01:17:56;;;;;;;17.65;5.13;;;;;;;9.09;63.41;101375.53;5095471;28;20050;-69
2021/03/31 01:20:44;;;;;;;7.63;4.75;;;;;;;9.07;64.07;101381.94;5095377;28;20083;-69
2021/03/31 01:24:05;;;;;;;8.75;4.43;;;;;;;9.04;66.19;101380.34;5096500;28;20094;-69
2021/03/31 01:26:53;;;;;;;7.82;4.95;;;;;;;9.02;65.40;101374.28;5096440;28;20143;-69
2021/03/31 01:29:52;;;;;;;12.98;5.05;;;;;;;9.00;65.61;101370.03;5095196;28;20450;-69
2021/03/31 01:33:29;;;;;;;13.73;4.88;;;;;;;8.90;64.89;101368.97;5097754;28;20082;-69
2021/03/31 01:36:16;;;;;;;9.88;5.30;;;;;;;8.79;64.60;101360.88;5026094;28;20106;-69
2021/03/31 01:39:02;;;;;;;7.05;4.65;;;;;;;8.66;63.81;101360.03;5096134;28;20499;-68
2021/03/31 01:41:47;;;;;;;14.05;6.47;;;;;;;8.55;63.25;101362.59;5080445;28;20046;-69
2021/03/31 01:44:31;;;;;;;9.77;5.70;;;;;;;8.47;63.07;101359.59;5080494;28;20097;-69
2021/03/31 01:47:17;;;;;;;9.98;5.35;;;;;;;8.39;63.97;101365.44;5095079;28;20545;-69
2021/03/31 01:50:04;;;;;;;11.88;6.15;;;;;;;8.36;63.78;101362.13;5094881;28;20054;-69
2021/03/31 01:52:48;;;;;;;8.68;5.72;;;;;;;8.29;63.68;101360.84;5094694;28;20561;-69
2021/03/31 01:55:33;;;;;;;10.50;5.38;;;;;;;8.23;63.66;101362.09;5094854;28;20051;-69
2021/03/31 01:58:17;;;;;;;17.25;6.10;;;;;;;8.18;64.41;101364.25;5094580;28;20481;-69
2021/03/31 02:01:02;;;;;;;10.63;5.68;;;;;;;8.13;64.75;101370.78;5094656;28;20059;-69
2021/03/31 02:03:47;;;;;;;12.75;5.82;;;;;;;8.07;66.07;101366.72;5094687;28;20074;-69
2021/03/31 02:06:33;;;;;;;9.32;5.60;;;;;;;8.05;66.61;101368.59;5080864;28;20046;-69
2021/03/31 02:09:18;;;;;;;12.70;5.18;;;;;;;8.02;66.88;101360.84;5095909;28;20051;-69
2021/03/31 02:12:02;;;;;;;11.57;5.00;;;;;;;7.99;67.41;101357.53;5095439;28;20042;-69
2021/03/31 02:14:47;;;;;;;8.98;5.38;;;;;;;7.96;67.44;101350.63;5094785;28;20177;-69
2021/03/31 02:17:33;;;;;;;12.60;5.53;;;;;;;7.96;67.37;101352.44;5080214;28;20067;-69
2021/03/31 02:20:19;;;;;;;9.13;5.72;;;;;;;7.92;67.85;101350.94;5093936;28;20055;-69
2021/03/31 02:23:04;;;;;;;12.98;5.78;;;;;;;7.87;66.65;101347.75;5095361;28;20428;-69
2021/03/31 02:25:49;;;;;;;9.00;5.70;;;;;;;7.87;66.47;101348.59;5094588;28;20059;-69
2021/03/31 02:28:33;;;;;;;10.35;5.78;;;;;;;7.86;65.57;101346.03;5094493;28;20050;-69
2021/03/31 02:31:19;;;;;;;16.02;5.65;;;;;;;7.84;65.53;101342.66;5093868;28;20570;-69
2021/03/31 02:34:04;;;;;;;9.65;5.43;;;;;;;7.80;65.93;101347.31;5079810;28;20043;-69
2021/03/31 02:36:49;;;;;;;12.27;5.93;;;;;;;7.81;68.24;101349.00;5079751;28;20094;-69
2021/03/31 02:39:39;;;;;;;9.52;5.20;;;;;;;7.80;68.75;101343.78;5094017;28;20097;-69
2021/03/31 02:42:25;;;;;;;12.00;7.05;;;;;;;7.73;68.33;101342.50;5079295;28;20043;-69
2021/03/31 02:45:10;;;;;;;13.32;6.03;;;;;;;7.66;67.45;101343.84;5093901;28;20459;-69
2021/03/31 02:47:55;;;;;;;17.27;5.47;;;;;;;7.64;66.58;101343.09;5094007;28;20094;-68
2021/03/31 02:50:40;;;;;;;9.65;5.95;;;;;;;7.62;67.20;101347.66;5093670;28;20483;-69
2021/03/31 02:53:24;;;;;;;10.95;5.85;;;;;;;7.61;67.40;101341.50;5093524;28;20515;-69
2021/03/31 02:56:09;;;;;;;11.02;5.45;;;;;;;7.59;67.68;101342.53;5093155;28;20093;-69
2021/03/31 02:58:53;;;;;;;19.67;5.97;;;;;;;7.53;67.45;101348.25;5079395;28;20047;-69
2021/03/31 03:01:39;;;;;;;14.40;5.78;;;;;;;7.51;67.64;101346.63;5093163;28;20055;-69
2021/03/31 03:04:24;;;;;;;14.65;5.85;;;;;;;7.45;66.86;101339.94;5093574;28;20105;-69
2021/03/31 03:07:08;;;;;;;13.45;5.72;;;;;;;7.41;66.82;101343.75;5093370;28;20467;-69
2021/03/31 03:09:52;;;;;;;11.07;6.55;;;;;;;7.32;67.03;101349.63;5079020;28;20073;-69
2021/03/31 03:12:41;;;;;;;12.45;5.68;;;;;;;7.32;68.19;101344.31;5078798;28;20047;-69
2021/03/31 03:15:28;;;;;;;10.05;5.40;;;;;;;7.24;68.00;101351.91;5093109;28;20131;-69
2021/03/31 03:18:13;;;;;;;14.93;5.97;;;;;;;7.20;67.97;101345.06;5093328;28;20105;-69
2021/03/31 03:20:59;;;;;;;7.90;5.40;;;;;;;7.15;68.23;101347.19;5093140;28;20538;-69
2021/03/31 03:23:44;;;;;;;14.00;5.55;;;;;;;7.10;68.78;101341.31;5092926;28;20051;-69
2021/03/31 03:26:28;;;;;;;9.27;5.70;;;;;;;7.09;69.72;101339.59;5093215;28;20101;-69
2021/03/31 03:29:12;;;;;;;10.65;5.85;;;;;;;7.02;69.60;101350.69;5079048;28;20047;-69
2021/03/31 03:31:56;;;;;;;8.15;5.70;;;;;;;6.97;70.43;101335.06;5092610;28;20507;-69
2021/03/31 03:34:41;;;;;;;11.73;5.70;;;;;;;6.87;71.42;101339.25;5078491;28;20415;-69
2021/03/31 03:37:25;;;;;;;10.43;5.53;;;;;;;6.80;72.24;101340.59;5092961;28;20051;-69
2021/03/31 03:40:10;;;;;;;9.07;5.88;;;;;;;6.76;72.11;101347.00;5092858;28;20097;-70
2021/03/31 03:42:54;;;;;;;13.40;6.28;;;;;;;6.73;71.42;101344.56;5078589;28;20031;-68
2021/03/31 03:45:39;;;;;;;9.60;5.70;;;;;;;6.74;71.84;101338.31;5092789;28;20066;-69
2021/03/31 03:48:23;;;;;;;18.63;6.15;;;;;;;6.74;71.47;101333.00;5092841;28;20051;-69
2021/03/31 03:51:09;;;;;;;14.07;6.00;;;;;;;6.75;71.19;101341.81;5078240;28;20097;-69
2021/03/31 03:53:54;;;;;;;11.60;6.13;;;;;;;6.69;71.03;101337.72;5078741;28;20510;-69
2021/03/31 03:56:38;;;;;;;10.65;6.32;;;;;;;6.67;72.06;101336.97;5092415;28;20054;-69
2021/03/31 03:59:27;;;;;;;9.35;5.68;;;;;;;6.63;71.31;101329.31;5093449;28;20132;-69
2021/03/31 04:02:11;;;;;;;13.80;6.10;;;;;;;6.58;70.81;101340.19;5078045;28;20117;-69
2021/03/31 04:04:55;;;;;;;12.02;5.60;;;;;;;6.52;71.47;101345.00;5093572;28;20412;-69
2021/03/31 04:07:39;;;;;;;16.38;6.35;;;;;;;6.50;71.00;101345.13;5078198;28;20058;-69
2021/03/31 04:10:26;;;;;;;18.58;6.45;;;;;;;6.48;71.42;101346.97;5078359;28;20047;-69
2021/03/31 04:13:10;;;;;;;11.88;6.60;;;;;;;6.48;71.28;101349.63;5092573;28;20082;-69
2021/03/31 04:16:08;;;;;;;15.05;5.85;;;;;;;6.50;72.04;101345.13;5078271;28;20047;-69
2021/03/31 04:18:53;;;;;;;14.93;6.10;;;;;;;6.52;71.91;101345.88;5093177;28;20147;-69
2021/03/31 04:21:37;;;;;;;9.02;5.57;;;;;;;6.50;72.50;101337.16;5092247;28;20607;-69
2021/03/31 04:24:21;;;;;;;8.50;6.03;;;;;;;6.50;72.38;101337.16;5092432;28;20412;-69
2021/03/31 04:27:07;;;;;;;16.88;6.00;;;;;;;6.48;72.33;101333.72;5078443;28;20097;-69
2021/03/31 04:29:53;;;;;;;12.70;6.03;;;;;;;6.47;72.51;101332.03;5092125;28;20043;-69
2021/03/31 04:32:42;;;;;;;8.38;5.50;;;;;;;6.44;72.69;101336.66;5092270;28;20093;-69
2021/03/31 04:35:26;;;;;;;13.48;6.18;;;;;;;6.40;72.52;101346.59;5092139;28;20061;-69
2021/03/31 04:38:13;;;;;;;9.85;6.38;;;;;;;6.33;72.50;101345.25;5077822;28;20126;-69
2021/03/31 04:40:59;;;;;;;13.93;6.78;;;;;;;6.25;72.72;101339.56;5092175;28;20511;-68
2021/03/31 04:43:43;;;;;;;12.35;5.93;;;;;;;6.22;73.18;101342.41;5092311;28;20539;-69
2021/03/31 04:46:27;;;;;;;13.98;6.40;;;;;;;6.20;73.49;101343.44;5092577;28;20117;-69
2021/03/31 04:49:11;;;;;;;11.10;6.82;;;;;;;6.17;73.56;101349.75;5077593;28;20050;-69
2021/03/31 04:51:55;;;;;;;12.20;6.03;;;;;;;6.14;73.60;101343.81;5092890;28;20405;-69
2021/03/31 04:54:39;;;;;;;9.20;6.22;;;;;;;6.11;73.68;101339.53;5077983;28;20144;-69
2021/03/31 04:57:23;;;;;;;15.77;6.13;;;;;;;6.15;74.93;101341.06;5091965;28;20051;-69
2021/03/31 05:00:07;;;;;;;12.73;6.05;;;;;;;6.16;74.50;101336.63;5077880;28;20101;-68
2021/03/31 05:02:51;;;;;;;11.57;6.03;;;;;;;6.14;74.77;101339.34;5092329;28;20061;-69
2021/03/31 05:05:35;;;;;;;12.75;6.75;;;;;;;6.14;75.38;101341.16;5092745;28;20059;-69
2021/03/31 05:08:19;;;;;;;8.88;5.95;;;;;;;6.14;74.79;101336.69;5092007;28;20460;-69
2021/03/31 05:11:03;;;;;;;12.40;7.90;;;;;;;6.11;74.67;101339.53;5092201;28;20043;-69
2021/03/31 05:13:47;;;;;;;15.15;6.45;;;;;;;6.11;74.74;101339.53;5092060;28;20047;-69
2021/03/31 05:16:32;;;;;;;12.48;6.43;;;;;;;6.10;74.93;101342.25;5091620;28;20042;-69
2021/03/31 05:19:15;;;;;;;13.20;6.32;;;;;;;6.09;75.28;101346.72;5094790;28;20051;-69
2021/03/31 05:21:59;;;;;;;11.10;6.63;;;;;;;6.09;75.05;101341.44;5095095;28;20043;-67
2021/03/31 05:24:43;;;;;;;14.00;7.65;;;;;;;6.10;74.84;101348.44;5095133;28;20109;-69
2021/03/31 05:27:27;;;;;;;10.85;6.40;;;;;;;6.12;74.51;101343.88;5095136;28;20102;-68
2021/03/31 05:30:12;;;;;;;13.00;7.15;;;;;;;6.13;74.77;101342.94;5094981;28;20123;-68
2021/03/31 05:32:56;;;;;;;13.73;7.07;;;;;;;6.16;74.72;101340.09;5081080;28;20047;-69
2021/03/31 05:35:42;;;;;;;12.80;7.13;;;;;;;6.22;74.96;101342.41;5095280;28;20085;-69
2021/03/31 05:38:27;;;;;;;10.38;6.47;;;;;;;6.25;74.67;101339.56;5095303;28;20082;-68
2021/03/31 05:41:13;;;;;;;10.45;6.35;;;;;;;6.28;74.64;101336.72;5095994;28;20462;-69
2021/03/31 05:44:02;;;;;;;12.98;7.30;;;;;;;6.33;74.10;101329.38;5095322;28;20469;-69
2021/03/31 05:46:47;;;;;;;13.95;6.85;;;;;;;6.37;74.29;101330.88;5096127;28;20083;-69
2021/03/31 05:49:32;;;;;;;13.57;6.82;;;;;;;6.43;74.28;101330.53;5095019;28;20086;-69
2021/03/31 05:52:15;;;;;;;11.45;7.20;;;;;;;6.47;73.92;101334.69;5094858;28;20047;-69
2021/03/31 05:55:02;;;;;;;11.18;7.13;;;;;;;6.52;73.88;101331.75;5094951;28;20043;-67
2021/03/31 05:57:46;;;;;;;10.93;6.55;;;;;;;6.56;74.18;101331.47;5094854;28;20553;-69
2021/03/31 06:00:30;;;;;;;16.95;7.03;;;;;;;6.62;74.34;101333.75;5094529;28;20050;-69
2021/03/31 06:03:14;;;;;;;13.40;7.50;;;;;;;6.67;74.08;101336.13;5094482;28;20055;-69
2021/03/31 06:06:01;;;;;;;12.05;7.75;;;;;;;6.71;72.77;101333.22;5080724;28;20047;-69
2021/03/31 06:08:45;;;;;;;16.25;7.30;;;;;;;6.81;72.93;101336.13;5094969;28;20089;-69
2021/03/31 06:11:46;;;;;;;11.90;7.20;;;;;;;6.88;72.57;101337.47;5079986;28;20044;-69
2021/03/31 06:14:32;;;;;;;10.95;6.65;;;;;;;6.93;72.86;101336.22;5095577;28;20085;-68
2021/03/31 06:17:16;;;;;;;12.25;7.32;;;;;;;7.01;72.97;101336.59;5080254;28;20078;-69
2021/03/31 06:20:00;;;;;;;11.05;6.68;;;;;;;7.09;72.67;101344.91;5095416;28;20148;-69
2021/03/31 06:22:54;;;;;;;12.95;7.10;;;;;;;7.19;72.73;101342.53;5095542;28;20046;-69
2021/03/31 06:25:50;;;;;;;10.63;7.00;;;;;;;7.30;71.97;101346.19;5095048;28;20043;-69
2021/03/31 06:28:36;;;;;;;12.50;6.55;;;;;;;7.45;71.86;101350.53;5094127;28;20047;-69
2021/03/31 06:31:21;;;;;;;12.45;7.88;;;;;;;7.58;71.68;101340.84;5093799;28;20101;-68
2021/03/31 06:34:07;;;;;;;19.73;8.00;;;;;;;7.75;71.58;101348.56;5094410;28;20503;-69
2021/03/31 06:37:03;;;;;;;13.25;7.50;;;;;;;7.95;72.46;101337.47;5094975;28;20050;-68
2021/03/31 06:39:50;;;;;;;14.55;7.50;;;;;;;8.14;73.41;101340.59;5081054;28;20134;-68
2021/03/31 06:42:44;;;;;;;14.88;7.80;;;;;;;8.28;74.30;101337.88;5093711;28;20085;-69
2021/03/31 06:45:39;;;;;;;14.57;7.82;;;;;;;8.47;74.57;101333.03;5094081;28;20132;-69
2021/03/31 06:48:26;;;;;;;13.40;7.45;;;;;;;8.57;75.40;101334.09;5093985;28;20151;-69
2021/03/31 06:51:30;;;;;;;15.98;7.57;;;;;;;8.67;74.85;101333.34;5093990;28;20047;-69
2021/03/31 06:54:18;;;;;;;13.80;8.10;;;;;;;8.79;74.53;101328.97;5093862;28;20047;-69
2021/03/31 06:57:03;;;;;;;19.35;8.07;;;;;;;8.92;74.15;101336.00;5093449;28;20055;-69
2021/03/31 06:59:56;;;;;;;23.20;9.15;;;;;;;9.12;72.66;101331.91;5093826;28;20116;-69
2021/03/31 07:02:42;;;;;;;25.92;9.88;;;;;;;9.20;72.09;101333.09;5094605;28;20500;-68
2021/03/31 07:05:31;;;;;;;17.73;9.88;;;;;;;9.28;71.82;101328.03;5093291;28;20058;-68
2021/03/31 07:08:16;;;;;;;23.35;9.85;;;;;;;9.37;71.18;101332.69;5093630;28;20047;-68
2021/03/31 07:11:00;;;;;;;22.08;10.27;;;;;;;9.53;71.25;101337.75;5094326;28;20503;-68
2021/03/31 07:13:44;;;;;;;23.15;10.75;;;;;;;9.72;69.51;101338.13;5094696;28;20054;-68
2021/03/31 07:16:28;;;;;;;;;;;;;;;9.90;68.53;101336.75;5093819;28;20055;-68
2021/03/31 07:19:13;;;;;;;28.00;10.73;;;;;;;10.08;69.40;101330.94;5093353;28;20003;-68
2021/03/31 07:21:58;;;;;;;22.98;9.95;;;;;;;10.24;68.54;101331.47;5078925;28;20572;-68
2021/03/31 07:24:42;;;;;;;22.00;9.90;;;;;;;10.39;69.41;101325.81;5079179;28;20054;-68
2021/03/31 07:27:26;;;;;;;29.00;11.15;;;;;;;10.62;68.72;101329.38;5094551;28;20518;-69
2021/03/31 07:30:15;;;;;;;22.15;10.68;;;;;;;10.85;67.66;101321.28;5093836;28;20109;-68
2021/03/31 07:33:18;;;;;;;23.27;11.73;;;;;;;11.09;66.51;101330.03;5093729;28;20125;-68
2021/03/31 07:36:07;;;;;;;16.60;9.93;;;;;;;11.30;64.92;101324.78;5093117;28;20523;-68
2021/03/31 07:38:52;;;;;;;15.68;10.70;;;;;;;11.50;64.35;101314.19;5092989;28;20069;-68
2021/03/31 07:41:37;;;;;;;20.27;11.32;;;;;;;11.72;63.15;101324.84;5092559;28;20104;-68
2021/03/31 07:44:30;;;;;;;16.58;9.43;;;;;;;11.94;61.47;101324.75;5078441;28;20505;-69
2021/03/31 07:47:15;;;;;;;17.98;10.38;;;;;;;12.10;62.37;101318.97;5092662;28;20093;-69
2021/03/31 07:49:59;;;;;;;17.23;10.73;;;;;;;12.25;62.75;101321.22;5092438;28;20051;-69
2021/03/31 07:52:54;;;;;;;16.85;9.68;;;;;;;12.44;61.86;101316.00;5092793;28;20039;-69
2021/03/31 07:55:44;;;;;;;15.45;10.18;;;;;;;12.60;62.11;101313.69;5092629;28;20051;-69
2021/03/31 07:58:28;;;;;;;16.65;10.02;;;;;;;12.79;61.85;101319.16;5092896;28;20073;-68
2021/03/31 08:01:12;;;;;;;20.27;9.95;;;;;;;12.94;60.54;101312.53;5092169;28;20405;-69
2021/03/31 08:03:57;;;;;;;16.92;9.73;;;;;;;13.06;60.83;101306.09;5092497;28;20055;-69
2021/03/31 08:06:42;;;;;;;17.08;9.27;;;;;;;13.23;60.23;101310.78;5092599;28;20503;-69
2021/03/31 08:09:30;;;;;;;15.07;9.88;;;;;;;13.35;60.06;101305.19;5093544;28;20101;-69
2021/03/31 08:12:30;;;;;;;16.50;9.13;;;;;;;13.45;59.85;101313.25;5092565;28;20094;-69
2021/03/31 08:15:40;;;;;;;17.83;9.90;;;;;;;13.57;59.25;101314.84;5093235;28;20055;-69
2021/03/31 08:18:25;;;;;;;15.35;9.75;;;;;;;13.83;58.62;101314.16;5077921;28;20089;-69
2021/03/31 08:21:20;;;;;;;15.70;9.10;;;;;;;13.97;58.36;101310.22;5093146;28;20101;-69
2021/03/31 08:24:05;;;;;;;;;;;;;;;14.16;57.39;101304.88;5078339;28;20066;-69
2021/03/31 08:26:58;;;;;;;;;;;;;;;14.23;57.33;101297.94;5092602;28;19958;-68
2021/03/31 08:29:42;;;;;;;19.25;10.38;;;;;;;14.43;56.27;101305.00;5093056;28;19919;-69
2021/03/31 08:32:27;;;;;;;15.43;9.90;;;;;;;14.65;55.99;101301.97;5092365;28;20050;-69
2021/03/31 08:35:11;;;;;;;15.30;9.82;;;;;;;14.80;55.97;101301.34;5092211;28;20404;-69
2021/03/31 08:37:56;;;;;;;21.08;10.05;;;;;;;14.97;55.19;101303.28;5093257;28;20206;-69
2021/03/31 08:40:40;;;;;;;18.10;9.57;;;;;;;15.08;54.93;101296.91;5092017;28;20101;-69
2021/03/31 08:43:24;;;;;;;17.10;10.20;;;;;;;15.17;54.62;101293.28;5078243;28;20051;-69
2021/03/31 08:46:08;;;;;;;15.63;9.52;;;;;;;15.31;53.87;101301.72;5093209;28;20093;-69
2021/03/31 08:48:52;;;;;;;11.80;8.88;;;;;;;15.55;52.90;101293.97;5091954;28;20089;-69
2021/03/31 08:51:40;;;;;;;14.45;8.38;;;;;;;15.73;51.96;101301.06;5092180;28;20613;-69
2021/03/31 08:54:51;;;;;;;15.40;8.88;;;;;;;15.93;50.90;101293.66;5080482;28;20050;-68
2021/03/31 08:57:36;;;;;;;17.13;8.02;;;;;;;16.07;50.98;101288.59;5095750;28;20070;-69
2021/03/31 09:00:20;;;;;;;13.48;8.20;;;;;;;16.18;50.43;101285.66;5096782;28;20051;-67
2021/03/31 09:03:05;;;;;;;13.40;7.97;;;;;;;16.40;49.81;101285.19;5081283;28;20115;-69
2021/03/31 09:06:03;;;;;;;13.23;7.85;;;;;;;16.63;48.88;101286.38;5095923;28;20139;-69
2021/03/31 09:08:47;;;;;;;14.77;8.07;;;;;;;16.82;46.54;101271.84;5096812;28;20093;-69
2021/03/31 09:11:31;;;;;;;14.73;7.60;;;;;;;17.01;46.84;101277.00;5096639;28;20548;-68
2021/03/31 09:14:19;;;;;;;14.73;8.05;;;;;;;17.14;45.10;101274.69;5096655;28;20055;-69
2021/03/31 09:17:06;;;;;;;14.35;7.10;;;;;;;17.37;44.85;101265.91;5096643;28;20109;-69
2021/03/31 09:20:00;;;;;;;15.57;6.50;;;;;;;17.65;43.75;101272.72;5081533;28;20063;-69
2021/03/31 09:22:44;;;;;;;;;;;;;;;17.88;43.75;101259.41;5095827;28;20132;-69
2021/03/31 09:25:28;;;;;;;15.60;7.05;;;;;;;17.97;42.02;101251.19;5096422;28;19960;-69
2021/03/31 09:28:15;;;;;;;10.35;6.50;;;;;;;18.07;41.81;101249.16;5081305;28;20105;-69
2021/03/31 09:31:12;;;;;;;13.68;6.45;;;;;;;18.34;42.42;101248.81;5095244;28;20446;-69
2021/03/31 09:33:56;;;;;;;10.38;6.53;;;;;;;18.64;41.60;101250.78;5095069;28;20123;-69
2021/03/31 09:36:40;;;;;;;14.45;6.40;;;;;;;18.86;40.68;101247.38;5095286;28;20118;-68
2021/03/31 09:39:44;;;;;;;9.25;6.05;;;;;;;19.42;38.97;101249.88;5080818;28;20185;-69
2021/03/31 09:42:36;;;;;;;10.23;5.88;;;;;;;19.99;39.25;101233.06;5080784;28;20084;-70
2021/03/31 09:45:23;;;;;;;9.70;5.72;;;;;;;20.66;35.64;101237.56;5095118;28;20058;-69
2021/03/31 09:48:07;;;;;;;13.80;5.85;;;;;;;21.47;35.62;101227.41;5095353;28;20553;-70
2021/03/31 09:50:52;;;;;;;11.40;5.43;;;;;;;23.11;33.00;101228.63;5094778;28;20510;-70
2021/03/31 09:53:37;;;;;;;9.30;5.68;;;;;;;24.77;29.23;101228.31;5095663;28;20051;-69
2021/03/31 09:56:21;;;;;;;10.15;6.07;;;;;;;26.33;26.49;101216.59;5094921;28;20047;-69
2021/03/31 09:59:05;;;;;;;16.23;6.65;;;;;;;27.35;25.22;101207.53;5080194;28;20519;-69
2021/03/31 10:01:48;;;;;;;12.25;6.90;;;;;;;28.51;24.20;101195.84;5080064;28;20062;-69
2021/03/31 10:04:36;;;;;;;14.20;6.55;;;;;;;28.21;23.89;101197.81;5079949;28;20071;-69
2021/03/31 10:07:20;;;;;;;16.10;6.82;;;;;;;27.83;24.41;101196.53;5095360;28;20046;-69
2021/03/31 10:10:06;;;;;;;11.75;6.82;;;;;;;28.19;24.03;101194.47;5094594;28;20416;-69
2021/03/31 10:12:51;;;;;;;13.57;6.78;;;;;;;29.00;22.68;101192.59;5094535;28;20046;-70
2021/03/31 10:15:35;;;;;;;;;;;;;;;29.52;22.17;101185.16;5094824;28;20474;-68
2021/03/31 10:18:19;;;;;;;10.40;6.78;;;;;;;31.48;20.86;101177.00;5094518;28;19918;-68
2021/03/31 10:21:04;;;;;;;10.02;6.68;;;;;;;31.60;19.56;101177.66;5094059;28;20075;-67
2021/03/31 10:23:49;;;;;;;15.18;7.57;;;;;;;30.41;20.67;101174.97;5095220;28;20075;-68
2021/03/31 10:26:36;;;;;;;16.23;8.10;;;;;;;30.98;20.80;101170.84;5094279;28;20500;-69
2021/03/31 10:29:22;;;;;;;16.35;8.13;;;;;;;32.05;19.74;101169.88;5094273;28;20043;-70
2021/03/31 10:32:06;;;;;;;16.95;8.15;;;;;;;31.47;19.35;101176.16;5093754;28;20046;-68
2021/03/31 10:34:54;;;;;;;16.23;8.55;;;;;;;31.68;19.44;101171.72;5080193;28;20051;-69
2021/03/31 10:37:40;;;;;;;16.65;8.70;;;;;;;31.14;20.84;101168.03;5079780;28;20059;-70
2021/03/31 10:52:32;;;;;;;17.00;10.18;;;;;;;31.54;18.82;101156.66;5095044;28;20076;-70
2021/03/31 10:55:16;;;;;;;16.70;9.52;;;;;;;32.75;18.82;101151.09;5093913;28;20408;-69
2021/03/31 10:58:00;;;;;;;14.80;9.68;;;;;;;31.24;19.38;101145.31;5093500;28;20082;-69
2021/03/31 11:00:44;;;;;;;18.10;10.00;;;;;;;31.03;19.96;101146.94;5094345;28;20097;-70
2021/03/31 11:03:28;;;;;;;18.30;10.50;;;;;;;30.76;20.45;101140.53;5094620;28;20055;-69
2021/03/31 11:06:12;;;;;;;19.42;10.43;;;;;;;31.86;19.12;101130.00;5094339;28;20089;-70
2021/03/31 11:08:56;;;;;;;19.13;10.77;;;;;;;32.59;17.95;101130.00;5093467;28;20511;-69
2021/03/31 11:11:40;;;;;;;21.90;10.85;;;;;;;31.40;19.09;101131.44;5093374;28;20097;-69
2021/03/31 11:14:24;;;;;;;16.95;10.57;;;;;;;32.53;18.17;101131.06;5093171;28;20177;-70
2021/03/31 11:17:19;;;;;;;19.15;10.15;;;;;;;31.47;19.29;101128.47;5092815;28;20043;-70
2021/03/31 11:26:06;;;;;;;19.63;10.23;;;;;;;32.21;18.60;101109.06;5093391;28;20046;-69
2021/03/31 11:28:50;;;;;;;17.80;10.20;;;;;;;33.10;17.75;101103.19;5078518;28;20097;-70
2021/03/31 11:31:33;;;;;;;16.40;10.73;;;;;;;33.73;17.68;101099.19;5092896;28;20557;-69
2021/03/31 11:34:17;;;;;;;18.65;10.70;;;;;;;35.36;15.84;101087.16;5093017;28;20055;-69
2021/03/31 11:37:02;;;;;;;19.60;11.10;;;;;;;36.21;15.16;101079.00;5094015;28;20110;-69
2021/03/31 11:39:46;;;;;;;17.20;10.65;;;;;;;36.99;14.46;101083.09;5093368;28;20050;-70
2021/03/31 11:42:30;;;;;;;15.02;10.05;;;;;;;37.37;14.35;101070.88;5092575;28;20498;-66
2021/03/31 11:45:14;;;;;;;16.73;10.27;;;;;;;35.68;15.48;101074.47;5078544;28;20055;-69
2021/03/31 11:47:58;;;;;;;17.52;9.60;;;;;;;36.78;14.78;101073.38;5092452;28;20047;-69
2021/03/31 11:50:42;;;;;;;16.10;9.75;;;;;;;37.71;14.07;101065.91;5078406;28;20043;-70
2021/03/31 11:53:29;;;;;;;16.85;9.45;;;;;;;37.18;14.68;101061.72;5092609;28;20062;-69
2021/03/31 11:56:14;;;;;;;16.67;10.00;;;;;;;38.65;13.33;101049.41;5092774;28;20078;-69
2021/03/31 11:58:58;;;;;;;19.23;10.85;;;;;;;39.67;12.49;101048.44;5092441;28;20062;-69
2021/03/31 12:01:42;;;;;;;18.38;8.93;;;;;;;40.13;12.19;101054.53;5092253;28;20101;-70
2021/03/31 12:04:25;;;;;;;13.93;9.27;;;;;;;36.93;13.41;101050.91;5092629;28;20569;-69
2021/03/31 12:07:11;;;;;;;14.98;8.15;;;;;;;37.70;12.82;101047.56;5092508;28;20055;-70
2021/03/31 12:09:55;;;;;;;14.75;7.68;;;;;;;36.87;14.23;101044.59;5093465;28;20051;-69
2021/03/31 12:12:40;;;;;;;13.07;9.07;;;;;;;37.26;13.63;101041.59;5092469;28;20043;-69
2021/03/31 12:15:24;;;;;;;14.48;8.80;;;;;;;39.01;12.60;101029.97;5092758;28;20579;-70
2021/03/31 12:18:08;;;;;;;11.68;8.65;;;;;;;39.93;12.01;101027.13;5093466;28;20051;-70
2021/03/31 12:20:52;;;;;;;14.40;9.25;;;;;;;39.39;12.35;101032.13;5093001;28;20055;-69
2021/03/31 12:23:36;;;;;;;17.02;9.63;;;;;;;38.55;13.19;101024.53;5092391;28;20511;-69
2021/03/31 12:26:20;;;;;;;18.27;8.90;;;;;;;35.77;14.37;101028.34;5093180;28;20507;-69
2021/03/31 12:29:04;;;;;;;16.40;8.35;;;;;;;36.44;14.38;101022.63;5095456;28;20047;-69
2021/03/31 12:31:48;;;;;;;14.45;7.15;;;;;;;36.87;13.51;101013.22;5097064;28;20121;-69
2021/03/31 12:34:33;;;;;;;12.20;6.22;;;;;;;37.39;13.44;101005.47;5081807;28;20050;-69
2021/03/31 12:37:16;;;;;;;13.23;7.45;;;;;;;38.72;12.16;101001.59;5097696;28;20511;-70
2021/03/31 12:40:01;;;;;;;11.35;6.70;;;;;;;39.49;12.32;100993.63;5096131;28;20051;-69
2021/03/31 12:42:45;;;;;;;11.32;6.38;;;;;;;40.00;11.43;100993.94;5095957;28;20120;-69
2021/03/31 12:45:29;;;;;;;10.02;6.22;;;;;;;39.55;10.89;100991.50;5097192;28;20058;-69
2021/03/31 12:48:13;;;;;;;9.88;6.32;;;;;;;36.95;13.08;100985.56;5095877;28;20097;-69
2021/03/31 12:51:04;;;;;;;8.45;5.80;;;;;;;38.14;12.67;100986.63;5096892;28;20046;-69
2021/03/31 12:54:00;;;;;;;12.35;5.93;;;;;;;38.36;11.22;100981.19;5097100;28;20046;-69
2021/03/31 12:56:44;;;;;;;8.77;5.20;;;;;;;37.92;11.48;100970.59;5095802;28;20051;-68
2021/03/31 12:59:28;;;;;;;11.85;5.05;;;;;;;38.33;11.57;100970.63;5095860;28;20051;-70
2021/03/31 13:02:12;;;;;;;8.82;5.07;;;;;;;38.86;11.01;100960.59;5096934;28;20088;-70
2021/03/31 13:04:56;;;;;;;9.93;5.50;;;;;;;37.69;11.77;100962.41;5095934;28;20097;-69
2021/03/31 13:07:40;;;;;;;11.38;5.07;;;;;;;38.32;11.97;100957.84;5081378;28;20058;-69
2021/03/31 13:10:25;;;;;;;12.00;4.93;;;;;;;38.26;11.95;100956.28;5097061;28;20050;-69